Time;durP1;ratioP1;P1;durP2;ratioP2;P2;SDS_P1;SDS_P2;PMS_P1;PMS_P2;Temp;Humidity;BMP_temperature;BMP_pressure;BME280_temperature;BME280_humidity;BME280_pressure;Samples;Min_cycle;Max_cycle;Signal;HPM_P1;HPM_P2
2023/08/03 00:01:20;;;;;;;3.70;2.70;;;;;;;;;;5076789;28;20028;-83
2023/08/03 00:03:45;;;;;;;4.00;2.67;;;;;;;;;;5075398;28;20368;-83
2023/08/03 00:06:10;;;;;;;3.65;2.95;;;;;;;;;;5075290;28;20025;-84
2023/08/03 00:08:36;;;;;;;3.28;2.60;;;;;;;;;;5076836;28;20094;-84
2023/08/03 00:11:01;;;;;;;4.13;2.72;;;;;;;;;;5076636;28;20038;-84
2023/08/03 00:13:27;;;;;;;2.80;2.25;;;;;;;;;;5076586;28;20051;-84
2023/08/03 00:15:52;;;;;;;4.10;2.40;;;;;;;;;;5076297;28;20032;-84
2023/08/03 00:18:17;;;;;;;4.70;2.70;;;;;;;;;;5075023;28;20024;-84
2023/08/03 00:20:43;;;;;;;3.45;2.45;;;;;;;;;;5075032;28;20081;-85
2023/08/03 00:23:08;;;;;;;3.40;2.55;;;;;;;;;;5076680;28;20028;-84
2023/08/03 00:25:33;;;;;;;4.15;2.08;;;;;;;;;;5074701;28;20048;-84
2023/08/03 00:27:59;;;;;;;2.67;2.17;;;;;;;;;;5076066;28;20028;-83
2023/08/03 00:30:24;;;;;;;2.20;2.00;;;;;;;;;;5074914;28;20034;-83
2023/08/03 00:32:49;;;;;;;3.00;2.47;;;;;;;;;;5074782;28;20036;-83
2023/08/03 00:35:15;;;;;;;2.78;2.00;;;;;;;;;;5074644;28;20028;-83
2023/08/03 00:37:40;;;;;;;3.03;2.03;;;;;;;;;;5075010;28;20031;-84
2023/08/03 00:40:07;;;;;;;2.50;1.80;;;;;;;;;;5075808;28;20089;-83
2023/08/03 00:42:32;;;;;;;2.83;2.08;;;;;;;;;;5058026;28;20116;-83
2023/08/03 00:44:57;;;;;;;2.63;1.60;;;;;;;;;;5074569;28;20060;-83
2023/08/03 00:47:23;;;;;;;2.97;1.90;;;;;;;;;;5073243;28;20036;-83
2023/08/03 00:49:48;;;;;;;2.55;1.92;;;;;;;;;;5075935;28;20554;-83
2023/08/03 00:52:14;;;;;;;1.88;1.60;;;;;;;;;;5075820;28;20071;-83
2023/08/03 00:54:39;;;;;;;2.45;1.90;;;;;;;;;;5075909;28;20028;-83
2023/08/03 00:57:05;;;;;;;2.00;1.67;;;;;;;;;;5074410;28;20129;-83
2023/08/03 00:59:30;;;;;;;2.58;1.80;;;;;;;;;;5075481;28;20357;-83
2023/08/03 01:01:56;;;;;;;2.95;2.00;;;;;;;;;;5074530;28;20039;-84
2023/08/03 01:04:21;;;;;;;2.17;1.77;;;;;;;;;;5074335;28;20048;-84
2023/08/03 01:06:46;;;;;;;2.40;1.60;;;;;;;;;;5074146;28;20029;-84
2023/08/03 01:09:12;;;;;;;2.40;1.73;;;;;;;;;;5074346;28;20079;-84
2023/08/03 01:11:37;;;;;;;2.03;1.50;;;;;;;;;;5075590;28;20055;-84
2023/08/03 01:14:03;;;;;;;1.98;1.40;;;;;;;;;;5074186;28;20043;-84
2023/08/03 01:16:28;;;;;;;2.03;1.48;;;;;;;;;;5057211;28;20032;-84
2023/08/03 01:18:54;;;;;;;2.42;1.50;;;;;;;;;;5074278;28;20035;-84
2023/08/03 01:21:20;;;;;;;2.95;1.70;;;;;;;;;;5075552;28;20537;-84
2023/08/03 01:23:46;;;;;;;1.92;1.50;;;;;;;;;;5074173;28;20024;-83
2023/08/03 01:26:11;;;;;;;1.55;1.40;;;;;;;;;;5056943;28;20049;-83
2023/08/03 01:28:37;;;;;;;3.00;1.60;;;;;;;;;;5075083;28;20391;-84
2023/08/03 01:31:03;;;;;;;2.25;1.60;;;;;;;;;;5056944;28;20036;-84
2023/08/03 01:33:28;;;;;;;2.25;1.50;;;;;;;;;;5073619;28;20033;-84
2023/08/03 01:35:53;;;;;;;2.47;1.48;;;;;;;;;;5073839;28;20539;-84
2023/08/03 01:38:19;;;;;;;2.10;1.45;;;;;;;;;;5073796;28;20025;-84
2023/08/03 01:40:44;;;;;;;2.30;1.48;;;;;;;;;;5074503;28;20039;-84
2023/08/03 01:43:10;;;;;;;2.40;1.58;;;;;;;;;;5074438;28;20484;-84
2023/08/03 01:45:36;;;;;;;2.00;1.48;;;;;;;;;;5073305;28;20036;-84
2023/08/03 01:48:02;;;;;;;2.58;1.80;;;;;;;;;;5074745;28;20074;-84
2023/08/03 01:50:27;;;;;;;2.50;1.40;;;;;;;;;;5056831;28;20032;-84
2023/08/03 01:52:53;;;;;;;3.10;1.60;;;;;;;;;;5074461;28;20071;-84
2023/08/03 01:55:18;;;;;;;2.38;1.40;;;;;;;;;;5073172;28;20138;-84
2023/08/03 01:57:44;;;;;;;2.22;1.40;;;;;;;;;;5056201;28;20024;-84
2023/08/03 02:00:10;;;;;;;2.08;1.38;;;;;;;;;;5074602;28;20024;-83
2023/08/03 02:02:35;;;;;;;2.65;1.48;;;;;;;;;;5073302;28;20028;-83
2023/08/03 02:05:00;;;;;;;3.25;1.60;;;;;;;;;;5072947;28;20495;-83
2023/08/03 02:07:45;;;;;;;3.20;1.33;;;;;;;;;;5073115;28;20062;-83
2023/08/03 02:10:11;;;;;;;1.70;1.40;;;;;;;;;;5074086;28;20021;-83
2023/08/03 02:12:37;;;;;;;2.58;1.60;;;;;;;;;;5072886;28;20395;-85
2023/08/03 02:15:06;;;;;;;2.20;1.48;;;;;;;;;;5072671;28;20036;-83
2023/08/03 02:17:32;;;;;;;3.63;1.38;;;;;;;;;;5072654;28;20025;-84
2023/08/03 02:19:58;;;;;;;3.05;1.60;;;;;;;;;;5056194;28;20032;-83
2023/08/03 02:22:23;;;;;;;1.92;1.20;;;;;;;;;;5072906;28;20477;-83
2023/08/03 02:24:49;;;;;;;2.42;1.23;;;;;;;;;;5072808;28;20123;-83
2023/08/03 02:27:14;;;;;;;2.83;1.20;;;;;;;;;;5072535;28;20039;-82
2023/08/03 02:29:39;;;;;;;4.22;1.15;;;;;;;;;;5072455;28;20032;-84
2023/08/03 02:32:05;;;;;;;2.72;1.40;;;;;;;;;;5072505;28;20032;-83
2023/08/03 02:34:30;;;;;;;1.52;1.25;;;;;;;;;;5072313;28;20032;-83
2023/08/03 02:36:56;;;;;;;1.30;1.10;;;;;;;;;;5055962;28;20098;-83
2023/08/03 02:39:21;;;;;;;2.05;1.10;;;;;;;;;;5072421;28;20028;-82
2023/08/03 02:41:46;;;;;;;2.03;1.35;;;;;;;;;;5072251;28;20071;-83
2023/08/03 02:44:12;;;;;;;1.60;1.15;;;;;;;;;;5073574;28;20063;-83
2023/08/03 02:46:37;;;;;;;1.67;1.10;;;;;;;;;;5055566;28;20540;-82
2023/08/03 02:49:03;;;;;;;2.90;1.40;;;;;;;;;;5072131;28;20041;-82
2023/08/03 02:51:28;;;;;;;3.85;1.17;;;;;;;;;;5073833;28;20387;-84
2023/08/03 02:53:53;;;;;;;2.42;1.10;;;;;;;;;;5073675;28;20035;-82
2023/08/03 02:56:19;;;;;;;2.30;1.30;;;;;;;;;;5073356;28;20028;-82
2023/08/03 02:58:44;;;;;;;2.45;1.30;;;;;;;;;;5072082;28;20029;-82
2023/08/03 03:01:10;;;;;;;2.35;1.15;;;;;;;;;;5072027;28;20123;-82
2023/08/03 03:03:36;;;;;;;2.50;1.10;;;;;;;;;;5073291;28;20028;-83
2023/08/03 03:06:01;;;;;;;3.72;1.20;;;;;;;;;;5073527;28;20036;-82
2023/08/03 03:08:26;;;;;;;1.52;1.05;;;;;;;;;;5071862;28;20039;-83
2023/08/03 03:10:52;;;;;;;2.95;1.30;;;;;;;;;;5072901;28;20029;-82
2023/08/03 03:13:17;;;;;;;3.28;1.45;;;;;;;;;;5073509;28;20029;-82
2023/08/03 03:15:43;;;;;;;2.08;1.20;;;;;;;;;;5071859;28;20369;-83
2023/08/03 03:18:08;;;;;;;1.67;1.10;;;;;;;;;;5071978;28;20072;-82
2023/08/03 03:20:33;;;;;;;1.70;1.00;;;;;;;;;;5073499;28;20466;-83
2023/08/03 03:22:59;;;;;;;1.83;1.13;;;;;;;;;;5073066;28;20415;-83
2023/08/03 03:25:24;;;;;;;2.05;1.33;;;;;;;;;;5071741;28;20110;-82
2023/08/03 03:27:49;;;;;;;3.10;1.30;;;;;;;;;;5072971;28;20043;-83
2023/08/03 03:30:16;;;;;;;1.63;1.10;;;;;;;;;;5072986;28;20043;-83
2023/08/03 03:32:42;;;;;;;2.67;1.25;;;;;;;;;;5073272;28;20499;-83
2023/08/03 03:35:08;;;;;;;3.25;1.65;;;;;;;;;;5072089;28;20068;-84
2023/08/03 03:37:33;;;;;;;1.40;1.02;;;;;;;;;;5055440;28;20067;-83
2023/08/03 03:39:58;;;;;;;1.55;1.13;;;;;;;;;;5054832;28;20031;-82
2023/08/03 03:42:24;;;;;;;2.17;1.20;;;;;;;;;;5054903;28;20036;-83
2023/08/03 03:44:49;;;;;;;1.30;1.10;;;;;;;;;;5071702;28;20502;-83
2023/08/03 03:47:15;;;;;;;1.80;1.25;;;;;;;;;;5071967;28;20056;-83
2023/08/03 03:49:40;;;;;;;2.42;1.52;;;;;;;;;;5071452;28;20040;-83
2023/08/03 03:52:06;;;;;;;1.83;1.20;;;;;;;;;;5071561;28;20025;-83
2023/08/03 03:54:31;;;;;;;1.05;0.88;;;;;;;;;;5072838;28;20082;-83
2023/08/03 03:56:58;;;;;;;1.65;1.15;;;;;;;;;;5071905;28;20035;-83
2023/08/03 03:59:23;;;;;;;1.08;0.90;;;;;;;;;;5073178;28;20024;-83
2023/08/03 04:01:48;;;;;;;1.20;1.10;;;;;;;;;;5071390;28;20036;-83
2023/08/03 04:04:14;;;;;;;1.65;1.10;;;;;;;;;;5071611;28;20471;-84
2023/08/03 04:06:39;;;;;;;3.80;1.08;;;;;;;;;;5073117;28;20032;-84
2023/08/03 04:09:05;;;;;;;1.08;0.98;;;;;;;;;;5073247;28;20074;-83
2023/08/03 04:11:30;;;;;;;2.22;1.20;;;;;;;;;;5071611;28;20447;-83
2023/08/03 04:13:55;;;;;;;1.90;1.10;;;;;;;;;;5054745;28;20028;-82
2023/08/03 04:16:21;;;;;;;2.08;1.00;;;;;;;;;;5072829;28;20082;-83
2023/08/03 04:18:46;;;;;;;3.00;1.73;;;;;;;;;;5072562;28;20028;-83
2023/08/03 04:21:11;;;;;;;1.60;1.00;;;;;;;;;;5074731;28;20383;-82
2023/08/03 04:23:37;;;;;;;1.10;1.00;;;;;;;;;;5076571;28;20025;-84
2023/08/03 04:26:02;;;;;;;2.28;1.15;;;;;;;;;;5076158;28;20519;-82
2023/08/03 04:28:28;;;;;;;1.58;0.98;;;;;;;;;;5076201;28;20574;-84
2023/08/03 04:30:53;;;;;;;1.80;1.10;;;;;;;;;;5074875;28;20064;-83
2023/08/03 04:33:19;;;;;;;1.17;1.00;;;;;;;;;;5075242;28;20387;-82
2023/08/03 04:35:44;;;;;;;1.52;1.00;;;;;;;;;;5075137;28;20027;-83
2023/08/03 04:38:09;;;;;;;2.45;1.20;;;;;;;;;;5076338;28;20134;-83
2023/08/03 04:40:35;;;;;;;1.73;1.33;;;;;;;;;;5076009;28;20054;-83
2023/08/03 04:43:01;;;;;;;1.05;0.95;;;;;;;;;;5074725;28;20074;-83
2023/08/03 04:45:26;;;;;;;2.67;1.00;;;;;;;;;;5075920;28;20376;-83
2023/08/03 04:47:52;;;;;;;1.52;0.90;;;;;;;;;;5076113;28;20056;-83
2023/08/03 04:50:19;;;;;;;1.95;1.13;;;;;;;;;;5074423;28;20043;-83
2023/08/03 04:52:44;;;;;;;2.53;1.17;;;;;;;;;;5075664;28;20032;-83
2023/08/03 04:55:10;;;;;;;0.88;0.88;;;;;;;;;;5074393;28;20104;-83
2023/08/03 04:57:35;;;;;;;2.70;1.10;;;;;;;;;;5057842;28;20036;-82
2023/08/03 05:00:00;;;;;;;2.38;0.90;;;;;;;;;;5074386;28;20028;-83
2023/08/03 05:02:26;;;;;;;1.73;1.00;;;;;;;;;;5074634;28;20062;-83
2023/08/03 05:04:51;;;;;;;1.33;0.98;;;;;;;;;;5075521;28;20503;-83
2023/08/03 05:07:16;;;;;;;3.20;1.35;;;;;;;;;;5074528;28;20035;-83
2023/08/03 05:09:42;;;;;;;1.85;1.15;;;;;;;;;;5074300;28;20108;-83
2023/08/03 05:12:07;;;;;;;1.48;1.00;;;;;;;;;;5075943;28;20486;-84
2023/08/03 05:14:33;;;;;;;1.88;1.00;;;;;;;;;;5074093;28;20059;-84
2023/08/03 05:16:58;;;;;;;1.55;0.88;;;;;;;;;;5075301;28;20033;-84
2023/08/03 05:19:23;;;;;;;1.05;0.98;;;;;;;;;;5057252;28;20467;-85
2023/08/03 05:21:49;;;;;;;1.08;0.90;;;;;;;;;;5074324;28;20028;-83
2023/08/03 05:24:14;;;;;;;1.25;1.05;;;;;;;;;;5073974;28;20053;-85
2023/08/03 05:26:39;;;;;;;2.25;1.00;;;;;;;;;;5057164;28;20476;-82
2023/08/03 05:29:05;;;;;;;1.13;1.00;;;;;;;;;;5075268;28;20372;-84
2023/08/03 05:31:30;;;;;;;2.15;1.27;;;;;;;;;;5075082;28;20029;-84
2023/08/03 05:33:55;;;;;;;0.98;0.82;;;;;;;;;;5073209;28;20487;-86
2023/08/03 05:36:22;;;;;;;1.40;0.90;;;;;;;;;;5073977;28;20075;-84
2023/08/03 05:38:49;;;;;;;2.00;1.00;;;;;;;;;;5074775;28;20021;-84
2023/08/03 05:41:16;;;;;;;1.20;0.75;;;;;;;;;;5075080;28;20111;-84
2023/08/03 05:43:42;;;;;;;1.65;1.05;;;;;;;;;;5073712;28;20027;-84
2023/08/03 05:46:12;;;;;;;1.05;0.80;;;;;;;;;;5074232;28;20028;-84
2023/08/03 05:48:38;;;;;;;0.85;0.82;;;;;;;;;;5074660;28;20028;-84
2023/08/03 05:51:03;;;;;;;2.70;1.10;;;;;;;;;;5057085;28;20032;-84
2023/08/03 05:53:29;;;;;;;1.58;1.02;;;;;;;;;;5074659;28;20361;-84
2023/08/03 05:55:54;;;;;;;1.80;1.10;;;;;;;;;;5057353;28;20070;-84
2023/08/03 05:58:20;;;;;;;2.03;1.02;;;;;;;;;;5073793;28;20035;-84
2023/08/03 06:00:50;;;;;;;1.65;1.00;;;;;;;;;;5074571;28;20387;-84
2023/08/03 06:03:17;;;;;;;2.15;0.80;;;;;;;;;;5074531;28;20032;-84
2023/08/03 06:05:47;;;;;;;0.73;0.73;;;;;;;;;;5056655;28;20025;-84
2023/08/03 06:08:20;;;;;;;1.70;0.80;;;;;;;;;;5075076;28;20036;-85
2023/08/03 06:10:54;;;;;;;3.47;1.02;;;;;;;;;;5073932;28;20032;-84
2023/08/03 06:13:28;;;;;;;1.63;1.13;;;;;;;;;;5073814;28;20020;-84
2023/08/03 06:15:53;;;;;;;1.92;1.10;;;;;;;;;;5073013;28;20047;-85
2023/08/03 06:18:20;;;;;;;1.73;0.90;;;;;;;;;;5074257;28;20471;-84
2023/08/03 06:20:50;;;;;;;2.33;1.10;;;;;;;;;;5056599;28;20032;-84
2023/08/03 06:23:45;;;;;;;1.75;1.30;;;;;;;;;;5074037;28;20029;-84
2023/08/03 06:26:12;;;;;;;2.05;1.00;;;;;;;;;;5054129;28;20095;-84
2023/08/03 06:28:38;;;;;;;1.95;1.13;;;;;;;;;;5073785;28;20053;-84
2023/08/03 06:31:15;;;;;;;2.00;1.17;;;;;;;;;;5072854;28;20119;-85
2023/08/03 06:33:43;;;;;;;3.10;1.27;;;;;;;;;;5072622;28;20043;-84
2023/08/03 06:36:11;;;;;;;1.45;0.88;;;;;;;;;;5072729;28;20028;-84
2023/08/03 06:38:36;;;;;;;2.33;1.15;;;;;;;;;;5073050;28;20046;-84
2023/08/03 06:41:02;;;;;;;2.75;1.13;;;;;;;;;;5055859;28;20024;-84
2023/08/03 06:43:28;;;;;;;2.80;1.40;;;;;;;;;;5072886;28;20024;-84
2023/08/03 06:45:53;;;;;;;2.22;1.10;;;;;;;;;;5071693;28;20058;-84
2023/08/03 06:48:19;;;;;;;4.60;1.17;;;;;;;;;;5073791;28;20384;-83
2023/08/03 06:50:44;;;;;;;1.65;1.10;;;;;;;;;;5072476;28;20032;-84
2023/08/03 06:53:11;;;;;;;1.77;0.85;;;;;;;;;;5072482;28;20487;-81
2023/08/03 06:55:37;;;;;;;3.08;1.50;;;;;;;;;;5072424;28;20032;-84
2023/08/03 06:58:03;;;;;;;2.10;1.08;;;;;;;;;;5073690;28;20489;-84
2023/08/03 07:00:28;;;;;;;2.45;1.10;;;;;;;;;;5073605;28;20043;-83
2023/08/03 07:02:54;;;;;;;3.10;1.20;;;;;;;;;;5076813;28;20103;-84
2023/08/03 07:05:19;;;;;;;2.10;1.10;;;;;;;;;;5074082;28;20387;-85
2023/08/03 07:07:45;;;;;;;2.17;1.38;;;;;;;;;;5073695;28;20024;-85
2023/08/03 07:10:10;;;;;;;1.52;1.02;;;;;;;;;;5074438;28;20028;-84
2023/08/03 07:12:37;;;;;;;3.35;1.20;;;;;;;;;;5074880;28;20040;-81
2023/08/03 07:15:04;;;;;;;4.03;1.40;;;;;;;;;;5074642;28;20052;-84
2023/08/03 07:17:31;;;;;;;1.80;1.10;;;;;;;;;;5072422;28;20035;-83
2023/08/03 07:19:57;;;;;;;2.53;1.38;;;;;;;;;;5072332;28;20125;-83
2023/08/03 07:22:22;;;;;;;3.50;1.45;;;;;;;;;;5072505;28;20025;-83
2023/08/03 07:24:48;;;;;;;2.08;1.20;;;;;;;;;;5068192;28;20510;-82
2023/08/03 07:27:14;;;;;;;2.72;1.40;;;;;;;;;;5072000;28;20048;-82
2023/08/03 07:29:40;;;;;;;2.47;1.50;;;;;;;;;;5054204;28;20057;-82
2023/08/03 07:32:06;;;;;;;3.40;1.33;;;;;;;;;;5070904;28;20059;-83
2023/08/03 07:34:32;;;;;;;2.65;1.48;;;;;;;;;;5079553;28;20547;-83
2023/08/03 07:36:58;;;;;;;2.15;1.23;;;;;;;;;;5072327;28;20151;-83
2023/08/03 07:39:23;;;;;;;2.90;1.40;;;;;;;;;;5070953;28;20020;-83
2023/08/03 07:41:49;;;;;;;2.70;1.67;;;;;;;;;;5070149;28;20495;-83
2023/08/03 07:44:15;;;;;;;3.13;1.80;;;;;;;;;;5072338;28;20037;-84
2023/08/03 07:46:41;;;;;;;4.40;1.88;;;;;;;;;;5071230;28;20059;-86
2023/08/03 07:49:06;;;;;;;2.30;1.40;;;;;;;;;;5072518;28;20067;-84
2023/08/03 07:51:31;;;;;;;2.70;1.80;;;;;;;;;;5072113;28;20063;-85
2023/08/03 07:53:57;;;;;;;2.90;1.60;;;;;;;;;;5072261;28;20119;-86
2023/08/03 07:56:22;;;;;;;3.42;1.83;;;;;;;;;;5072744;28;20059;-85
2023/08/03 07:58:50;;;;;;;3.00;1.80;;;;;;;;;;5058043;28;20020;-86
2023/08/03 08:01:15;;;;;;;2.08;1.50;;;;;;;;;;5056440;28;20039;-84
2023/08/03 08:03:41;;;;;;;2.08;1.65;;;;;;;;;;5072413;28;20028;-84
2023/08/03 08:06:08;;;;;;;3.47;1.98;;;;;;;;;;5061270;28;20029;-85
2023/08/03 08:08:34;;;;;;;2.65;1.70;;;;;;;;;;5103018;28;20328;-84
2023/08/03 08:11:00;;;;;;;2.20;1.55;;;;;;;;;;5086222;28;20040;-83
2023/08/03 08:13:25;;;;;;;2.97;2.08;;;;;;;;;;5076443;28;20028;-83
2023/08/03 08:15:51;;;;;;;3.30;1.90;;;;;;;;;;5091259;28;20025;-84
2023/08/03 08:18:16;;;;;;;2.25;1.70;;;;;;;;;;5074509;28;20025;-85
2023/08/03 08:20:44;;;;;;;3.88;1.90;;;;;;;;;;5091385;28;20094;-84
2023/08/03 08:23:10;;;;;;;2.15;1.55;;;;;;;;;;5074431;28;20028;-85
2023/08/03 08:25:37;;;;;;;2.17;1.60;;;;;;;;;;5075391;28;20185;-85
2023/08/03 08:28:03;;;;;;;2.25;1.80;;;;;;;;;;5074264;28;20498;-84
2023/08/03 08:30:28;;;;;;;3.38;1.75;;;;;;;;;;5075587;28;20040;-84
2023/08/03 08:32:53;;;;;;;2.28;1.42;;;;;;;;;;5075397;28;20029;-83
2023/08/03 08:35:19;;;;;;;2.03;1.60;;;;;;;;;;5074153;28;20386;-84
2023/08/03 08:37:45;;;;;;;2.47;1.65;;;;;;;;;;5074178;28;20025;-82
2023/08/03 08:40:13;;;;;;;2.42;1.63;;;;;;;;;;5075215;28;20402;-83
2023/08/03 08:42:39;;;;;;;2.83;1.58;;;;;;;;;;5073995;28;20062;-83
2023/08/03 08:45:05;;;;;;;2.80;1.80;;;;;;;;;;5090764;28;20395;-81
2023/08/03 08:47:31;;;;;;;2.33;1.70;;;;;;;;;;5075003;28;20043;-79
2023/08/03 08:49:56;;;;;;;4.03;1.90;;;;;;;;;;5073926;28;20032;-79
2023/08/03 08:52:26;;;;;;;3.70;2.10;;;;;;;;;;5073799;28;20114;-83
2023/08/03 08:55:20;;;;;;;2.78;1.90;;;;;;;;;;5073817;28;20033;-81
2023/08/03 08:57:45;;;;;;;4.53;1.98;;;;;;;;;;5090334;28;20532;-82
2023/08/03 09:00:12;;;;;;;5.03;2.13;;;;;;;;;;5090564;28;20033;-82
2023/08/03 09:02:37;;;;;;;8.90;2.20;;;;;;;;;;5074019;28;20464;-82
2023/08/03 09:05:18;;;;;;;4.88;2.50;;;;;;;;;;5090609;28;20039;-82
2023/08/03 09:07:44;;;;;;;8.07;2.78;;;;;;;;;;5072571;28;20024;-80
2023/08/03 09:10:10;;;;;;;5.88;2.72;;;;;;;;;;5075075;28;20073;-82
2023/08/03 09:12:38;;;;;;;6.63;2.70;;;;;;;;;;5073353;28;20041;-82
2023/08/03 09:15:04;;;;;;;10.60;2.50;;;;;;;;;;5074589;28;20059;-82
2023/08/03 09:17:30;;;;;;;4.50;2.22;;;;;;;;;;5090186;28;20028;-82
2023/08/03 09:19:55;;;;;;;9.93;2.60;;;;;;;;;;5074560;28;20035;-82
2023/08/03 09:22:22;;;;;;;6.95;2.47;;;;;;;;;;5073402;28;20110;-81
2023/08/03 09:25:06;;;;;;;9.63;2.75;;;;;;;;;;5073551;28;20387;-82
2023/08/03 09:27:32;;;;;;;4.13;2.17;;;;;;;;;;5072901;28;20494;-82
2023/08/03 09:29:59;;;;;;;6.38;2.40;;;;;;;;;;5089920;28;20046;-82
2023/08/03 09:32:30;;;;;;;4.78;2.22;;;;;;;;;;5073036;28;20024;-83
2023/08/03 09:34:56;;;;;;;6.18;2.15;;;;;;;;;;5089817;28;20027;-82
2023/08/03 09:37:32;;;;;;;8.30;2.55;;;;;;;;;;5074157;28;20103;-79
2023/08/03 09:39:58;;;;;;;5.45;2.10;;;;;;;;;;5072889;28;20021;-81
2023/08/03 09:42:25;;;;;;;3.47;2.10;;;;;;;;;;5089414;28;20043;-82
2023/08/03 09:44:53;;;;;;;6.88;2.22;;;;;;;;;;5089536;28;20575;-81
2023/08/03 09:47:19;;;;;;;5.30;2.17;;;;;;;;;;5072781;28;20052;-82
2023/08/03 09:49:44;;;;;;;3.95;1.95;;;;;;;;;;5072519;28;20502;-82
2023/08/03 09:52:11;;;;;;;6.05;2.25;;;;;;;;;;5072655;28;20036;-82
2023/08/03 09:54:40;;;;;;;4.28;1.88;;;;;;;;;;5072669;28;20090;-82
2023/08/03 09:57:11;;;;;;;3.85;2.10;;;;;;;;;;5072419;28;20490;-81
2023/08/03 09:59:37;;;;;;;2.90;1.90;;;;;;;;;;5055934;28;20024;-81
2023/08/03 10:02:07;;;;;;;3.25;1.65;;;;;;;;;;5072514;28;20020;-81
2023/08/03 10:04:34;;;;;;;3.22;1.80;;;;;;;;;;5072464;28;20106;-82
2023/08/03 10:07:02;;;;;;;6.07;1.83;;;;;;;;;;5089184;28;20047;-82
2023/08/03 10:09:36;;;;;;;3.30;1.83;;;;;;;;;;5073410;28;20033;-81
2023/08/03 10:12:05;;;;;;;3.60;1.92;;;;;;;;;;5088917;28;20036;-82
2023/08/03 10:14:36;;;;;;;6.75;1.90;;;;;;;;;;5072548;28;20132;-81
2023/08/03 10:17:04;;;;;;;4.47;2.05;;;;;;;;;;5073363;28;20028;-81
2023/08/03 10:19:31;;;;;;;3.17;1.90;;;;;;;;;;5071941;28;20025;-82
2023/08/03 10:21:57;;;;;;;3.40;2.00;;;;;;;;;;5073334;28;20101;-82
2023/08/03 10:24:22;;;;;;;5.32;1.83;;;;;;;;;;5072155;28;20028;-83
2023/08/03 10:26:54;;;;;;;2.58;1.40;;;;;;;;;;5072889;28;20040;-82
2023/08/03 10:29:51;;;;;;;2.53;1.40;;;;;;;;;;5073063;28;20059;-83
2023/08/03 10:32:22;;;;;;;2.50;1.58;;;;;;;;;;5071858;28;20020;-82
2023/08/03 10:34:48;;;;;;;2.08;1.60;;;;;;;;;;5073045;28;20052;-83
2023/08/03 10:37:13;;;;;;;2.70;1.40;;;;;;;;;;5071780;28;20056;-82
2023/08/03 10:39:49;;;;;;;2.97;1.52;;;;;;;;;;5071814;28;20055;-82
2023/08/03 10:42:29;;;;;;;2.97;1.33;;;;;;;;;;5072638;28;20060;-81
2023/08/03 10:44:55;;;;;;;3.15;1.58;;;;;;;;;;5071743;28;20506;-81
2023/08/03 10:47:25;;;;;;;3.78;1.40;;;;;;;;;;5071593;28;20552;-82
2023/08/03 10:49:52;;;;;;;2.10;1.40;;;;;;;;;;5071664;28;20132;-82
2023/08/03 10:52:36;;;;;;;3.53;1.65;;;;;;;;;;5072772;28;20032;-82
2023/08/03 10:55:26;;;;;;;3.28;1.38;;;;;;;;;;5088443;28;20119;-82
2023/08/03 10:57:52;;;;;;;3.78;1.58;;;;;;;;;;5071617;28;20020;-80
2023/08/03 11:00:17;;;;;;;2.50;1.30;;;;;;;;;;5071608;28;20391;-83
2023/08/03 11:02:43;;;;;;;4.85;1.70;;;;;;;;;;5071568;28;20382;-83
2023/08/03 11:05:12;;;;;;;3.13;1.60;;;;;;;;;;5088245;28;20040;-83
2023/08/03 11:07:40;;;;;;;1.80;1.20;;;;;;;;;;5105075;28;20031;-82
2023/08/03 11:10:13;;;;;;;3.13;1.40;;;;;;;;;;5071540;28;20031;-81
2023/08/03 11:12:40;;;;;;;4.80;1.60;;;;;;;;;;5072387;28;20031;-82
2023/08/03 11:15:06;;;;;;;3.42;1.60;;;;;;;;;;5073400;28;20039;-83
2023/08/03 11:17:36;;;;;;;3.05;1.38;;;;;;;;;;5075497;28;20035;-82
2023/08/03 11:20:09;;;;;;;1.58;0.90;;;;;;;;;;5084712;28;20463;-82
2023/08/03 11:22:35;;;;;;;2.45;1.30;;;;;;;;;;5075075;28;20088;-83
2023/08/03 11:25:03;;;;;;;1.75;1.25;;;;;;;;;;5091374;28;20036;-82
2023/08/03 11:27:30;;;;;;;2.65;1.30;;;;;;;;;;5091184;28;20020;-83
2023/08/03 11:29:56;;;;;;;1.40;1.10;;;;;;;;;;5091388;28;20043;-82
2023/08/03 11:32:23;;;;;;;3.05;1.42;;;;;;;;;;5096553;28;20028;-82
2023/08/03 11:34:49;;;;;;;2.78;1.38;;;;;;;;;;5095578;28;20103;-82
2023/08/03 11:37:14;;;;;;;1.67;1.15;;;;;;;;;;5095485;28;20453;-82
2023/08/03 11:39:39;;;;;;;3.50;1.30;;;;;;;;;;5095610;28;20039;-82
2023/08/03 11:42:07;;;;;;;3.45;1.25;;;;;;;;;;5097670;28;20028;-82
2023/08/03 11:44:37;;;;;;;1.52;1.23;;;;;;;;;;5079198;28;20046;-82
2023/08/03 11:47:03;;;;;;;3.15;1.30;;;;;;;;;;5097356;28;20020;-82
2023/08/03 11:49:29;;;;;;;2.00;1.23;;;;;;;;;;5097655;28;20093;-82
2023/08/03 11:51:59;;;;;;;2.35;1.35;;;;;;;;;;5096193;28;20085;-82
2023/08/03 11:54:26;;;;;;;2.17;1.00;;;;;;;;;;5093533;28;20732;-83
2023/08/03 11:56:51;;;;;;;3.20;1.10;;;;;;;;;;5073855;28;20071;-86
2023/08/03 11:59:16;;;;;;;1.27;0.90;;;;;;;;;;5075718;28;20028;-86
2023/08/03 12:01:46;;;;;;;1.65;0.80;;;;;;;;;;5092414;28;20036;-85
2023/08/03 12:04:13;;;;;;;1.90;0.90;;;;;;;;;;5075554;28;20498;-84
2023/08/03 12:07:05;;;;;;;3.83;0.98;;;;;;;;;;5058814;28;20050;-87
2023/08/03 12:09:39;;;;;;;2.15;1.20;;;;;;;;;;5054868;28;20392;-85
2023/08/03 12:12:13;;;;;;;1.08;0.90;;;;;;;;;;5075411;28;20471;-82
2023/08/03 12:14:40;;;;;;;1.63;0.90;;;;;;;;;;5076786;28;20052;-81
2023/08/03 12:17:11;;;;;;;2.38;0.98;;;;;;;;;;5075275;28;20028;-85
2023/08/03 12:19:37;;;;;;;2.50;0.88;;;;;;;;;;5075615;28;20047;-86
2023/08/03 12:22:03;;;;;;;1.70;1.00;;;;;;;;;;5076818;28;20032;-86
2023/08/03 12:24:29;;;;;;;2.20;1.10;;;;;;;;;;5076795;28;20058;-85
2023/08/03 12:26:55;;;;;;;1.73;1.00;;;;;;;;;;5075140;28;20052;-87
2023/08/03 12:29:21;;;;;;;2.80;1.15;;;;;;;;;;5075080;28;20621;-85
2023/08/03 12:31:46;;;;;;;2.22;1.27;;;;;;;;;;5075237;28;20056;-86
2023/08/03 12:34:12;;;;;;;2.38;1.15;;;;;;;;;;5076999;28;20020;-87
2023/08/03 12:36:37;;;;;;;2.58;1.15;;;;;;;;;;5058184;28;20028;-86
2023/08/03 12:39:05;;;;;;;1.65;1.05;;;;;;;;;;5076134;28;20074;-85
2023/08/03 12:41:31;;;;;;;2.35;0.90;;;;;;;;;;5075540;28;20028;-84
2023/08/03 12:43:56;;;;;;;1.45;1.00;;;;;;;;;;5057232;28;20066;-85
2023/08/03 12:46:21;;;;;;;0.90;0.85;;;;;;;;;;5076378;28;20064;-86
2023/08/03 12:48:47;;;;;;;1.30;0.85;;;;;;;;;;5074970;28;20059;-85
2023/08/03 12:51:12;;;;;;;1.73;1.00;;;;;;;;;;5078649;28;20028;-84
2023/08/03 12:53:39;;;;;;;2.15;1.20;;;;;;;;;;5071414;28;20060;-85
2023/08/03 12:56:04;;;;;;;2.03;0.90;;;;;;;;;;5054406;28;20037;-84
2023/08/03 12:58:29;;;;;;;1.02;0.90;;;;;;;;;;5086304;28;20027;-85
2023/08/03 13:00:59;;;;;;;2.65;0.80;;;;;;;;;;5076352;28;20058;-84
2023/08/03 13:03:25;;;;;;;3.15;1.00;;;;;;;;;;5042446;28;20360;-85
2023/08/03 13:05:50;;;;;;;1.02;0.80;;;;;;;;;;5108320;28;20029;-84
2023/08/03 13:08:16;;;;;;;0.77;0.70;;;;;;;;;;5076043;28;20024;-84
2023/08/03 13:10:45;;;;;;;1.65;1.05;;;;;;;;;;5078110;28;20544;-83
2023/08/03 13:13:11;;;;;;;1.30;0.90;;;;;;;;;;5087649;28;20028;-85
2023/08/03 13:15:37;;;;;;;1.35;0.85;;;;;;;;;;5085054;28;20520;-85
2023/08/03 13:18:03;;;;;;;1.17;0.75;;;;;;;;;;5089056;28;20024;-85
2023/08/03 13:20:28;;;;;;;1.35;0.80;;;;;;;;;;5079465;28;20475;-87
2023/08/03 13:22:54;;;;;;;3.25;0.82;;;;;;;;;;5072083;28;20081;-86
2023/08/03 13:25:19;;;;;;;3.30;0.90;;;;;;;;;;5088897;28;20045;-86
2023/08/03 13:27:46;;;;;;;0.80;0.80;;;;;;;;;;5068265;28;20058;-88
2023/08/03 13:30:11;;;;;;;1.60;0.70;;;;;;;;;;5090311;28;20028;-88
2023/08/03 13:32:41;;;;;;;1.67;1.00;;;;;;;;;;5077576;28;20042;-87
2023/08/03 13:35:07;;;;;;;2.40;1.15;;;;;;;;;;5074386;28;20028;-84
2023/08/03 13:37:33;;;;;;;2.47;0.75;;;;;;;;;;5074107;28;20166;-84
2023/08/03 13:39:58;;;;;;;0.93;0.70;;;;;;;;;;5075455;28;20082;-86
2023/08/03 13:42:23;;;;;;;1.10;1.00;;;;;;;;;;5076135;28;20029;-85
2023/08/03 13:44:49;;;;;;;1.00;0.90;;;;;;;;;;5076992;28;20056;-83
2023/08/03 13:47:14;;;;;;;1.90;0.90;;;;;;;;;;5075748;28;20396;-85
2023/08/03 13:49:40;;;;;;;1.27;0.90;;;;;;;;;;5074586;28;20032;-83
2023/08/03 13:52:06;;;;;;;1.10;0.82;;;;;;;;;;5091385;28;20086;-86
2023/08/03 13:54:31;;;;;;;0.98;0.70;;;;;;;;;;5075459;28;20036;-86
2023/08/03 13:56:58;;;;;;;1.02;0.90;;;;;;;;;;5076020;28;20027;-84
2023/08/03 13:59:23;;;;;;;1.15;0.70;;;;;;;;;;5074925;28;20025;-85
2023/08/03 14:01:49;;;;;;;3.85;0.88;;;;;;;;;;5076607;28;20703;-83
2023/08/03 14:04:16;;;;;;;2.70;1.08;;;;;;;;;;5079343;28;20032;-87
2023/08/03 14:06:41;;;;;;;0.70;0.70;;;;;;;;;;5075957;28;20085;-84
2023/08/03 14:09:07;;;;;;;4.57;1.00;;;;;;;;;;5073434;28;20020;-86
2023/08/03 14:11:32;;;;;;;1.83;0.90;;;;;;;;;;5073291;28;20028;-82
2023/08/03 14:14:00;;;;;;;0.95;0.80;;;;;;;;;;5056443;28;20028;-85
2023/08/03 14:16:30;;;;;;;3.38;1.27;;;;;;;;;;5072890;28;20027;-86
2023/08/03 14:18:55;;;;;;;1.75;0.80;;;;;;;;;;5056381;28;20016;-84
2023/08/03 14:21:20;;;;;;;1.73;0.80;;;;;;;;;;5073203;28;20047;-83
2023/08/03 14:23:46;;;;;;;2.95;1.17;;;;;;;;;;5067476;28;20032;-83
2023/08/03 14:26:11;;;;;;;1.63;0.90;;;;;;;;;;5053270;28;20080;-83
2023/08/03 14:28:38;;;;;;;1.13;0.82;;;;;;;;;;5052905;28;20061;-84
2023/08/03 14:31:05;;;;;;;2.28;0.80;;;;;;;;;;5053010;28;20033;-83
2023/08/03 14:33:31;;;;;;;0.85;0.82;;;;;;;;;;5054308;28;20036;-82
2023/08/03 14:35:56;;;;;;;1.30;0.85;;;;;;;;;;5052769;28;20032;-82
2023/08/03 14:38:22;;;;;;;0.70;0.70;;;;;;;;;;5052787;28;20047;-83
2023/08/03 14:40:48;;;;;;;1.80;1.02;;;;;;;;;;5052597;28;20400;-83